createdAt,value
2023-10-02T00:02:23.637Z,16.30
2023-10-02T00:04:51.552Z,16.28
2023-10-02T00:07:18.058Z,16.28
2023-10-02T00:09:44.679Z,16.18
2023-10-02T00:12:11.137Z,16.09
2023-10-02T00:14:37.677Z,15.88
2023-10-02T00:17:04.214Z,15.73
2023-10-02T00:19:30.723Z,15.88
2023-10-02T00:21:57.188Z,16.00
2023-10-02T00:24:23.610Z,16.06
2023-10-02T00:26:50.050Z,16.01
2023-10-02T00:29:16.544Z,16.07
2023-10-02T00:31:43.145Z,16.01
2023-10-02T00:34:09.607Z,16.03
2023-10-02T00:36:36.039Z,15.87
2023-10-02T00:39:02.499Z,15.87
2023-10-02T00:41:29.171Z,15.82
2023-10-02T00:43:55.912Z,15.72
2023-10-02T00:46:22.497Z,15.36
2023-10-02T00:48:48.965Z,15.53
2023-10-02T00:51:15.674Z,15.67
2023-10-02T00:53:42.364Z,15.63
2023-10-02T00:56:08.777Z,15.60
2023-10-02T00:58:35.651Z,15.65
2023-10-02T01:01:02.206Z,15.72
2023-10-02T01:03:28.829Z,15.76
2023-10-02T01:05:55.476Z,15.77
2023-10-02T01:08:22.061Z,15.70
2023-10-02T01:10:48.927Z,15.66
2023-10-02T01:13:15.476Z,15.67
2023-10-02T01:15:50.051Z,15.72
2023-10-02T01:18:17.227Z,15.76
2023-10-02T01:20:43.945Z,15.76
2023-10-02T01:23:10.628Z,15.78
2023-10-02T01:25:37.097Z,15.82
2023-10-02T01:28:03.540Z,15.81
2023-10-02T01:30:29.997Z,15.81
2023-10-02T01:32:56.478Z,15.81
2023-10-02T01:35:22.948Z,15.80
2023-10-02T01:37:49.713Z,15.77
2023-10-02T01:40:16.173Z,15.73
2023-10-02T01:42:42.614Z,15.56
2023-10-02T01:45:09.037Z,15.50
2023-10-02T01:47:36.557Z,15.56
2023-10-02T01:50:03.014Z,15.63
2023-10-02T01:52:41.825Z,15.66
2023-10-02T01:55:17.193Z,15.63
2023-10-02T01:57:44.020Z,15.62
2023-10-02T02:00:10.584Z,15.49
2023-10-02T02:02:37.157Z,15.41
2023-10-02T02:05:08.210Z,15.43
2023-10-02T02:07:34.806Z,15.47
2023-10-02T02:10:01.265Z,15.41
2023-10-02T02:12:27.842Z,15.37
2023-10-02T02:14:55.286Z,15.39
2023-10-02T02:17:26.372Z,15.34
2023-10-02T02:19:55.418Z,15.22
2023-10-02T02:22:21.888Z,15.23
2023-10-02T02:24:48.289Z,15.30
2023-10-02T02:27:15.676Z,15.29
2023-10-02T02:29:42.141Z,15.34
2023-10-02T02:32:08.806Z,15.24
2023-10-02T02:34:35.597Z,15.21
2023-10-02T02:37:02.127Z,15.19
2023-10-02T02:39:28.549Z,15.19
2023-10-02T02:41:56.036Z,15.13
2023-10-02T02:44:22.424Z,15.14
2023-10-02T02:46:49.001Z,15.17
2023-10-02T02:49:15.663Z,15.08
2023-10-02T02:51:42.436Z,15.11
2023-10-02T02:54:10.312Z,15.01
2023-10-02T02:56:36.927Z,14.96
2023-10-02T02:59:03.470Z,14.87
2023-10-02T03:01:29.938Z,14.94
2023-10-02T03:03:57.674Z,14.85
2023-10-02T03:06:24.279Z,14.80
2023-10-02T03:08:50.952Z,14.78
2023-10-02T03:11:17.346Z,14.55
2023-10-02T03:13:43.799Z,14.55
2023-10-02T03:16:10.297Z,14.55
2023-10-02T03:18:36.958Z,14.42
2023-10-02T03:21:03.324Z,14.45
2023-10-02T03:23:32.482Z,14.55
2023-10-02T03:25:59.100Z,14.42
2023-10-02T03:28:25.883Z,14.45
2023-10-02T03:30:52.490Z,14.58
2023-10-02T03:33:19.086Z,14.58
2023-10-02T03:35:45.546Z,14.41
2023-10-02T03:38:14.085Z,14.31
2023-10-02T03:40:40.823Z,14.50
2023-10-02T03:43:07.276Z,14.54
2023-10-02T03:45:33.915Z,14.59
2023-10-02T03:48:01.059Z,14.36
2023-10-02T03:50:27.645Z,14.17
2023-10-02T03:52:54.349Z,14.32
2023-10-02T03:55:20.848Z,14.46
2023-10-02T03:57:47.316Z,14.56
2023-10-02T04:00:13.836Z,14.59
2023-10-02T04:02:40.373Z,14.57
2023-10-02T04:05:06.923Z,14.64
2023-10-02T04:07:33.400Z,14.69
2023-10-02T04:09:59.887Z,14.74
2023-10-02T04:12:26.897Z,14.77
2023-10-02T04:14:53.294Z,14.78
2023-10-02T04:17:19.843Z,14.80
2023-10-02T04:19:46.303Z,14.81
2023-10-02T04:22:12.671Z,14.81
2023-10-02T04:24:39.183Z,14.81
2023-10-02T04:27:05.544Z,14.83
2023-10-02T04:29:32.187Z,14.83
2023-10-02T04:31:59.763Z,14.81
2023-10-02T04:34:26.353Z,14.80
2023-10-02T04:36:52.934Z,14.78
2023-10-02T04:39:19.401Z,14.79
2023-10-02T04:41:46.201Z,14.78
2023-10-02T04:44:12.685Z,14.79
2023-10-02T04:46:39.288Z,14.77
2023-10-02T04:49:06.111Z,14.73
2023-10-02T04:51:32.542Z,14.74
2023-10-02T04:53:59.090Z,14.72
2023-10-02T04:56:25.638Z,14.62
2023-10-02T04:58:52.294Z,14.64
2023-10-02T05:01:19.095Z,14.67
2023-10-02T05:03:45.772Z,14.67
2023-10-02T05:06:12.546Z,14.69
2023-10-02T05:08:39.013Z,14.71
2023-10-02T05:11:05.832Z,14.73
2023-10-02T05:13:32.347Z,14.68
2023-10-02T05:15:59.038Z,14.69
2023-10-02T05:18:25.531Z,14.68
2023-10-02T05:20:55.078Z,14.68
2023-10-02T05:23:26.372Z,14.67
2023-10-02T05:25:53.535Z,14.67
2023-10-02T05:28:20.101Z,14.67
2023-10-02T05:30:47.016Z,14.68
2023-10-02T05:33:13.527Z,14.68
2023-10-02T05:35:40.364Z,14.72
2023-10-02T05:38:06.807Z,14.73
2023-10-02T05:40:35.624Z,14.75
2023-10-02T05:43:02.339Z,14.77
2023-10-02T05:45:29.812Z,14.78
2023-10-02T05:47:56.784Z,14.80
2023-10-02T05:50:23.252Z,14.81
2023-10-02T05:52:49.784Z,14.85
2023-10-02T05:55:16.382Z,14.88
2023-10-02T05:57:43.058Z,14.90
2023-10-02T06:00:09.462Z,14.94
2023-10-02T06:02:35.977Z,14.97
2023-10-02T06:05:02.691Z,15.00
2023-10-02T06:07:30.285Z,15.00
2023-10-02T06:09:56.685Z,15.03
2023-10-02T06:12:23.181Z,15.06
2023-10-02T06:14:50.453Z,15.03
2023-10-02T06:17:17.732Z,15.08
2023-10-02T06:19:44.335Z,15.13
2023-10-02T06:22:10.901Z,15.15
2023-10-02T06:24:38.054Z,15.11
2023-10-02T06:27:04.718Z,15.09
2023-10-02T06:29:31.253Z,15.06
2023-10-02T06:31:58.783Z,15.12
2023-10-02T06:34:26.058Z,15.21
2023-10-02T06:36:52.811Z,15.25
2023-10-02T06:39:19.350Z,15.32
2023-10-02T06:41:45.792Z,15.37
2023-10-02T06:44:12.633Z,15.41
2023-10-02T06:46:39.516Z,15.47
2023-10-02T06:49:08.429Z,15.54
2023-10-02T06:51:35.025Z,15.55
2023-10-02T06:54:09.104Z,15.67
2023-10-02T06:56:35.602Z,15.74
2023-10-02T06:59:02.757Z,15.83
2023-10-02T07:01:29.724Z,15.88
2023-10-02T07:03:56.627Z,15.87
2023-10-02T07:06:23.285Z,15.87
2023-10-02T07:08:50.115Z,15.95
2023-10-02T07:11:17.493Z,15.96
2023-10-02T07:13:44.040Z,15.97
2023-10-02T07:16:10.659Z,16.02
2023-10-02T07:18:37.198Z,16.10
2023-10-02T07:21:04.392Z,16.19
2023-10-02T07:23:31.389Z,16.26
2023-10-02T07:26:00.377Z,16.31
2023-10-02T07:28:26.851Z,16.36
2023-10-02T07:30:53.288Z,16.40
2023-10-02T07:33:23.377Z,16.44
2023-10-02T07:35:49.946Z,16.50
2023-10-02T07:38:16.520Z,16.40
2023-10-02T07:40:43.389Z,16.52
2023-10-02T07:43:09.952Z,16.57
2023-10-02T07:45:36.566Z,16.64
2023-10-02T07:48:03.105Z,16.71
2023-10-02T07:50:29.675Z,16.80
2023-10-02T07:52:57.221Z,16.89
2023-10-02T07:55:24.115Z,16.90
2023-10-02T07:57:50.949Z,16.87
2023-10-02T08:00:17.381Z,16.97
2023-10-02T08:02:43.878Z,17.00
2023-10-02T08:05:10.990Z,17.01
2023-10-02T08:07:45.572Z,17.01
2023-10-02T08:10:13.166Z,16.98
2023-10-02T08:12:41.173Z,17.08
2023-10-02T08:15:07.657Z,17.17
2023-10-02T08:17:34.185Z,17.21
2023-10-02T08:20:01.232Z,17.17
2023-10-02T08:22:28.047Z,17.25
2023-10-02T08:24:57.017Z,17.26
2023-10-02T08:27:23.639Z,17.31
2023-10-02T08:29:50.138Z,17.37
2023-10-02T08:32:16.776Z,17.41
2023-10-02T08:34:43.403Z,17.41
2023-10-02T08:37:09.976Z,17.49
2023-10-02T08:39:36.462Z,17.55
2023-10-02T08:42:02.869Z,17.51
2023-10-02T08:44:29.741Z,17.49
2023-10-02T08:46:56.492Z,17.51
2023-10-02T08:49:23.122Z,17.59
2023-10-02T08:51:50.594Z,17.53
2023-10-02T08:54:17.632Z,17.52
2023-10-02T08:56:44.379Z,17.61
2023-10-02T08:59:11.217Z,17.49
2023-10-02T09:01:37.852Z,17.60
2023-10-02T09:04:04.417Z,17.53
2023-10-02T09:06:31.259Z,17.58
2023-10-02T09:08:57.675Z,17.70
2023-10-02T09:11:24.538Z,17.79
2023-10-02T09:13:50.967Z,17.81
2023-10-02T09:16:17.437Z,17.92
2023-10-02T09:18:44.364Z,17.83
2023-10-02T09:21:10.752Z,17.94
2023-10-02T09:23:38.305Z,17.95
2023-10-02T09:26:04.954Z,18.05
2023-10-02T09:28:31.692Z,18.04
2023-10-02T09:30:58.516Z,18.14
2023-10-02T09:33:31.402Z,18.24
2023-10-02T09:36:32.928Z,18.15
2023-10-02T09:38:58.155Z,18.19
2023-10-02T09:41:27.230Z,18.28
2023-10-02T09:43:53.929Z,18.32
2023-10-02T09:46:21.557Z,18.27
2023-10-02T09:48:48.832Z,18.40
2023-10-02T09:51:15.316Z,18.35
2023-10-02T09:53:44.132Z,18.42
2023-10-02T09:56:10.684Z,18.46
2023-10-02T09:58:37.148Z,18.48
2023-10-02T10:01:03.569Z,18.53
2023-10-02T10:03:30.480Z,18.59
2023-10-02T10:05:58.545Z,18.63
2023-10-02T10:08:26.797Z,18.63
2023-10-02T10:10:53.532Z,18.75
2023-10-02T10:13:21.584Z,18.79
2023-10-02T10:15:48.328Z,18.80
2023-10-02T10:18:15.230Z,18.63
2023-10-02T10:20:42.894Z,18.68
2023-10-02T10:23:09.404Z,18.82
2023-10-02T10:25:35.917Z,18.82
2023-10-02T10:28:02.409Z,18.88
2023-10-02T10:30:29.381Z,18.91
2023-10-02T10:32:56.191Z,18.75
2023-10-02T10:35:23.061Z,18.84
2023-10-02T10:37:49.766Z,18.88
2023-10-02T10:40:16.636Z,18.82
2023-10-02T10:42:43.311Z,18.94
2023-10-02T10:45:13.435Z,18.92
2023-10-02T10:47:40.030Z,19.06
2023-10-02T10:50:06.756Z,19.04
2023-10-02T10:52:33.277Z,19.08
2023-10-02T10:55:00.861Z,19.16
2023-10-02T10:57:29.307Z,19.23
2023-10-02T10:59:55.982Z,19.31
2023-10-02T11:02:22.652Z,19.27
2023-10-02T11:04:49.358Z,19.34
2023-10-02T11:07:16.132Z,19.38
2023-10-02T11:09:43.677Z,19.38
2023-10-02T11:12:10.240Z,19.43
2023-10-02T11:14:37.234Z,19.45
2023-10-02T11:17:04.201Z,19.41
2023-10-02T11:19:30.674Z,19.44
2023-10-02T11:21:57.112Z,19.60
2023-10-02T11:24:23.640Z,19.59
2023-10-02T11:26:50.333Z,19.73
2023-10-02T11:29:19.487Z,19.74
2023-10-02T11:31:46.272Z,19.65
2023-10-02T11:36:42.711Z,19.88
2023-10-02T11:39:09.160Z,19.88
2023-10-02T11:41:38.114Z,19.73
2023-10-02T11:44:04.883Z,19.96
2023-10-02T11:46:31.376Z,20.02
2023-10-02T11:48:58.096Z,20.02
2023-10-02T11:51:24.567Z,20.09
2023-10-02T11:53:51.038Z,20.17
2023-10-02T11:56:17.584Z,20.23
2023-10-02T11:58:44.437Z,20.25
2023-10-02T12:01:10.856Z,20.23
2023-10-02T12:03:37.739Z,20.36
2023-10-02T12:06:04.312Z,20.42
2023-10-02T12:08:30.767Z,20.46
2023-10-02T12:10:57.275Z,20.46
2023-10-02T12:13:23.782Z,20.53
2023-10-02T12:15:50.823Z,20.54
2023-10-02T12:18:17.339Z,20.63
2023-10-02T12:20:44.103Z,20.74
2023-10-02T12:23:10.853Z,20.75
2023-10-02T12:25:37.412Z,20.82
2023-10-02T12:28:03.986Z,20.78
2023-10-02T12:30:30.395Z,20.88
2023-10-02T12:32:56.869Z,20.86
2023-10-02T12:35:23.522Z,20.81
2023-10-02T12:37:49.981Z,20.97
2023-10-02T12:40:16.439Z,21.02
2023-10-02T12:42:42.891Z,21.04
2023-10-02T12:45:09.399Z,21.07
2023-10-02T12:47:36.044Z,21.07
2023-10-02T12:50:03.694Z,21.09
2023-10-02T12:52:30.805Z,21.23
2023-10-02T12:54:57.771Z,21.32
2023-10-02T12:57:24.498Z,21.29
2023-10-02T12:59:51.030Z,21.35
2023-10-02T13:02:17.575Z,21.40
2023-10-02T13:04:44.569Z,21.44
2023-10-02T13:07:10.987Z,21.39
2023-10-02T13:09:39.908Z,21.54
2023-10-02T13:12:07.596Z,21.53
2023-10-02T13:14:34.103Z,21.65
2023-10-02T13:17:00.669Z,21.73
2023-10-02T13:19:27.130Z,21.73
2023-10-02T13:21:54.454Z,21.85
2023-10-02T13:24:21.356Z,21.91
2023-10-02T13:26:48.311Z,22.00
2023-10-02T13:29:14.797Z,22.02
2023-10-02T13:31:41.766Z,22.12
2023-10-02T13:34:08.410Z,22.21
2023-10-02T13:36:35.511Z,22.24
2023-10-02T13:39:02.608Z,22.26
2023-10-02T13:41:29.378Z,22.22
2023-10-02T13:43:57.252Z,22.33
2023-10-02T13:46:24.103Z,22.49
2023-10-02T13:48:50.859Z,22.53
2023-10-02T13:51:17.420Z,22.60
2023-10-02T13:53:43.918Z,22.68
2023-10-02T13:56:11.871Z,22.64
2023-10-02T13:58:38.413Z,22.73
2023-10-02T14:01:05.127Z,22.78
2023-10-02T14:03:31.823Z,22.83
2023-10-02T14:05:58.378Z,22.83
2023-10-02T14:08:25.753Z,22.67
2023-10-02T14:10:52.684Z,22.81
2023-10-02T14:13:19.305Z,22.84
2023-10-02T14:15:46.237Z,22.85
2023-10-02T14:18:13.266Z,22.88
2023-10-02T14:20:41.814Z,22.79
2023-10-02T14:23:08.780Z,22.88
2023-10-02T14:25:35.376Z,22.95
2023-10-02T14:28:01.998Z,23.00
2023-10-02T14:30:28.470Z,23.07
2023-10-02T14:32:57.334Z,23.11
2023-10-02T14:35:25.744Z,23.14
2023-10-02T14:37:52.309Z,23.24
2023-10-02T14:40:19.067Z,23.29
2023-10-02T14:42:55.117Z,23.32
2023-10-02T14:45:21.659Z,23.37
2023-10-02T14:47:48.383Z,23.41
2023-10-02T14:50:15.043Z,23.51
2023-10-02T14:52:41.887Z,23.51
2023-10-02T14:55:09.513Z,23.58
2023-10-02T14:57:36.237Z,23.62
2023-10-02T15:00:02.921Z,23.67
2023-10-02T15:02:29.679Z,23.71
2023-10-02T15:04:56.770Z,23.76
2023-10-02T15:07:23.395Z,23.76
2023-10-02T15:09:49.910Z,23.82
2023-10-02T15:12:17.402Z,23.83
2023-10-02T15:14:43.803Z,23.81
2023-10-02T15:17:10.423Z,23.84
2023-10-02T15:19:37.608Z,23.86
2023-10-02T15:22:04.209Z,23.86
2023-10-02T15:24:30.821Z,23.84
2023-10-02T15:26:59.693Z,23.80
2023-10-02T15:29:26.282Z,23.76
2023-10-02T15:31:52.922Z,23.57
2023-10-02T15:34:19.401Z,23.49
2023-10-02T15:36:45.837Z,23.48
2023-10-02T15:39:12.310Z,23.38
2023-10-02T15:41:38.813Z,23.24
2023-10-02T15:44:05.675Z,23.19
2023-10-02T15:46:32.390Z,23.17
2023-10-02T15:48:59.085Z,23.16
2023-10-02T15:51:26.706Z,23.10
2023-10-02T15:53:55.563Z,23.08
2023-10-02T15:56:25.763Z,23.02
2023-10-02T15:58:52.646Z,22.96
2023-10-02T16:01:19.114Z,22.96
2023-10-02T16:03:46.024Z,22.94
2023-10-02T16:06:12.489Z,22.93
2023-10-02T16:08:38.954Z,22.88
2023-10-02T16:11:05.484Z,22.85
2023-10-02T16:13:32.040Z,22.82
2023-10-02T16:15:58.912Z,22.81
2023-10-02T16:18:25.421Z,22.77
2023-10-02T16:20:54.283Z,22.78
2023-10-02T16:23:20.718Z,22.76
2023-10-02T16:25:54.645Z,22.73
2023-10-02T16:28:21.093Z,22.70
2023-10-02T16:30:49.957Z,22.67
2023-10-02T16:33:17.038Z,22.63
2023-10-02T16:35:43.579Z,22.62
2023-10-02T16:38:11.154Z,22.58
2023-10-02T16:40:37.700Z,22.54
2023-10-02T16:43:06.346Z,22.53
2023-10-02T16:45:33.233Z,22.57
2023-10-02T16:48:00.517Z,22.60
2023-10-02T16:52:53.468Z,22.62
2023-10-02T16:55:20.328Z,22.56
2023-10-02T16:57:46.752Z,22.52
2023-10-02T17:00:13.526Z,22.49
2023-10-02T17:02:40.281Z,22.46
2023-10-02T17:05:10.216Z,22.41
2023-10-02T17:07:37.792Z,22.32
2023-10-02T17:10:04.799Z,22.19
2023-10-02T17:12:31.418Z,22.19
2023-10-02T17:14:58.214Z,22.22
2023-10-02T17:17:24.958Z,22.22
2023-10-02T17:19:51.493Z,22.17
2023-10-02T17:22:18.361Z,21.98
2023-10-02T17:27:25.695Z,21.84
2023-10-02T17:29:53.699Z,21.86
2023-10-02T17:32:20.950Z,21.72
2023-10-02T17:34:48.074Z,21.80
2023-10-02T17:37:15.333Z,21.79
2023-10-02T17:39:42.631Z,21.77
2023-10-02T17:42:10.494Z,21.74
2023-10-02T17:44:39.127Z,21.73
2023-10-02T17:47:06.527Z,21.72
2023-10-02T17:49:33.918Z,21.70
2023-10-02T17:52:05.362Z,21.71
2023-10-02T17:54:32.823Z,21.68
2023-10-02T17:57:04.732Z,21.63
2023-10-02T17:59:31.996Z,21.56
2023-10-02T18:01:59.496Z,21.55
2023-10-02T18:04:26.966Z,21.50
2023-10-02T18:06:54.355Z,21.47
2023-10-02T18:09:21.762Z,21.41
2023-10-02T18:11:49.167Z,21.41
2023-10-02T18:14:16.808Z,21.13
2023-10-02T18:16:44.104Z,20.90
2023-10-02T18:19:11.435Z,21.05
2023-10-02T18:21:38.990Z,21.04
2023-10-02T18:24:08.803Z,21.08
2023-10-02T18:26:36.112Z,21.08
2023-10-02T18:29:03.678Z,21.10
2023-10-02T18:31:31.219Z,21.07
2023-10-02T18:33:58.519Z,21.07
2023-10-02T18:36:25.934Z,21.03
2023-10-02T18:38:53.237Z,21.02
2023-10-02T18:41:20.630Z,20.98
2023-10-02T18:43:48.093Z,20.91
2023-10-02T18:46:15.387Z,20.84
2023-10-02T18:48:45.744Z,20.81
2023-10-02T18:51:13.058Z,20.80
2023-10-02T18:53:40.577Z,20.79
2023-10-02T18:56:08.091Z,20.74
2023-10-02T18:58:35.499Z,20.68
2023-10-02T19:01:03.468Z,20.57
2023-10-02T19:03:31.020Z,20.59
2023-10-02T19:05:58.450Z,20.35
2023-10-02T19:08:26.766Z,20.37
2023-10-02T19:10:54.117Z,20.43
2023-10-02T19:13:22.055Z,20.39
2023-10-02T19:15:49.510Z,20.43
2023-10-02T19:18:16.932Z,20.44
2023-10-02T19:20:44.731Z,20.45
2023-10-02T19:23:12.192Z,20.44
2023-10-02T19:25:39.785Z,20.41
2023-10-02T19:28:07.047Z,20.35
2023-10-02T19:30:34.408Z,20.33
2023-10-02T19:33:01.907Z,20.33
2023-10-02T19:35:29.334Z,20.31
2023-10-02T19:37:56.700Z,20.28
2023-10-02T19:40:24.020Z,20.27
2023-10-02T19:42:54.314Z,20.25
2023-10-02T19:45:21.802Z,20.19
2023-10-02T19:47:54.786Z,20.11
2023-10-02T19:50:22.054Z,20.07
2023-10-02T19:52:49.746Z,20.09
2023-10-02T19:55:17.013Z,20.08
2023-10-02T19:57:44.349Z,20.04
2023-10-02T20:00:12.044Z,20.01
2023-10-02T20:02:39.743Z,19.99
2023-10-02T20:05:09.392Z,19.96
2023-10-02T20:07:38.247Z,19.94
2023-10-02T20:10:05.563Z,19.92
2023-10-02T20:12:34.106Z,19.87
2023-10-02T20:15:01.344Z,19.85
2023-10-02T20:17:28.854Z,19.75
2023-10-02T20:19:56.742Z,19.72
2023-10-02T20:22:23.950Z,19.70
2023-10-02T20:24:52.552Z,19.72
2023-10-02T20:27:20.705Z,19.73
2023-10-02T20:29:50.024Z,19.70
2023-10-02T20:32:18.192Z,19.65
2023-10-02T20:34:45.058Z,19.64
2023-10-02T20:37:11.583Z,19.56
2023-10-02T20:39:38.464Z,19.52
2023-10-02T20:42:05.376Z,19.43
2023-10-02T20:44:32.076Z,19.39
2023-10-02T20:47:11.497Z,19.34
2023-10-02T20:49:41.573Z,19.27
2023-10-02T20:52:08.317Z,19.33
2023-10-02T20:54:34.713Z,19.33
2023-10-02T20:57:01.108Z,19.34
2023-10-02T20:59:27.602Z,19.31
2023-10-02T21:02:01.212Z,19.21
2023-10-02T21:04:27.995Z,19.01
2023-10-02T21:06:54.486Z,19.04
2023-10-02T21:09:20.930Z,19.09
2023-10-02T21:11:47.609Z,19.14
2023-10-02T21:14:16.749Z,19.12
2023-10-02T21:16:43.409Z,19.13
2023-10-02T21:19:10.012Z,19.11
2023-10-02T21:21:36.466Z,19.10
2023-10-02T21:24:02.857Z,19.06
2023-10-02T21:26:29.605Z,18.98
2023-10-02T21:28:57.123Z,18.97
2023-10-02T21:31:23.988Z,18.97
2023-10-02T21:33:50.497Z,18.96
2023-10-02T21:36:17.064Z,18.92
2023-10-02T21:38:43.770Z,18.91
2023-10-02T21:41:10.269Z,18.89
2023-10-02T21:43:36.805Z,18.89
2023-10-02T21:46:03.288Z,18.86
2023-10-02T21:48:29.794Z,18.79
2023-10-02T21:50:56.282Z,18.69
2023-10-02T21:53:22.732Z,18.68
2023-10-02T21:55:49.240Z,18.71
2023-10-02T21:58:15.882Z,18.65
2023-10-02T22:00:42.473Z,18.64
2023-10-02T22:03:09.186Z,18.62
2023-10-02T22:05:35.730Z,18.59
2023-10-02T22:08:02.345Z,18.60
2023-10-02T22:10:28.963Z,18.58
2023-10-02T22:12:56.142Z,18.57
2023-10-02T22:15:22.611Z,18.55
2023-10-02T22:17:49.671Z,18.50
2023-10-02T22:20:16.484Z,18.52
2023-10-02T22:22:43.491Z,18.50
2023-10-02T22:25:09.950Z,18.49
2023-10-02T22:27:38.617Z,18.47
2023-10-02T22:30:05.019Z,18.42
2023-10-02T22:32:31.563Z,18.36
2023-10-02T22:35:01.112Z,18.36
2023-10-02T22:37:27.793Z,18.36
2023-10-02T22:39:54.563Z,18.32
2023-10-02T22:42:20.977Z,18.19
2023-10-02T22:44:50.419Z,18.20
2023-10-02T22:47:16.885Z,18.14
2023-10-02T22:49:43.328Z,18.09
2023-10-02T22:52:10.025Z,18.07
2023-10-02T22:54:36.443Z,18.06
2023-10-02T22:57:03.474Z,18.02
2023-10-02T22:59:30.148Z,18.00
2023-10-02T23:01:56.568Z,17.98
2023-10-02T23:04:23.037Z,17.98
2023-10-02T23:06:49.476Z,17.95
2023-10-02T23:09:15.900Z,17.94
2023-10-02T23:11:42.668Z,17.91
2023-10-02T23:14:09.407Z,17.89
2023-10-02T23:16:35.822Z,17.79
2023-10-02T23:19:04.462Z,17.72
2023-10-02T23:21:31.019Z,17.64
2023-10-02T23:23:57.436Z,17.62
2023-10-02T23:26:24.224Z,17.64
2023-10-02T23:28:51.688Z,17.63
2023-10-02T23:31:25.501Z,17.65
2023-10-02T23:33:52.035Z,17.43
2023-10-02T23:36:18.470Z,17.49
2023-10-02T23:38:47.003Z,17.49
2023-10-02T23:41:13.530Z,17.47
2023-10-02T23:43:40.339Z,17.50
2023-10-02T23:46:07.066Z,17.50
2023-10-02T23:48:34.600Z,17.49
2023-10-02T23:51:01.114Z,17.51
2023-10-02T23:53:27.749Z,17.49
2023-10-02T23:55:54.136Z,17.48
2023-10-02T23:58:20.570Z,17.46
